Time;durP1;ratioP1;P1;durP2;ratioP2;P2;SDS_P1;SDS_P2;PMS_P1;PMS_P2;Temp;Humidity;BMP_temperature;BMP_pressure;BME280_temperature;BME280_humidity;BME280_pressure;Samples;Min_cycle;Max_cycle;Signal;HPM_P1;HPM_P2
2023/05/01 00:00:43;;;;;;;;;;;;;;;4.30;79.18;100584.59;10654870;27;19930;-72
2023/05/01 00:05:48;;;;;;;;;;;;;;;4.31;78.82;100572.66;10665360;27;19929;-72
2023/05/01 00:11:16;;;;;;;;;;;;;;;4.45;78.59;100584.88;10623801;27;20384;-72
2023/05/01 00:16:18;;;;;;;;;;;;;;;4.45;78.81;100574.03;10688711;27;19927;-72
2023/05/01 00:21:20;;;;;;;;;;;;;;;4.43;78.81;100568.00;10635339;27;19923;-73
2023/05/01 00:26:25;;;;;;;;;;;;;;;4.37;78.78;100575.25;10662238;27;20404;-72
2023/05/01 00:31:27;;;;;;;;;;;;;;;4.35;79.52;100557.53;10640121;27;19953;-72
2023/05/01 00:36:30;;;;;;;;;;;;;;;4.31;80.20;100561.78;10655336;27;19927;-72
2023/05/01 00:41:35;;;;;;;;;;;;;;;4.27;80.30;100561.44;10637410;27;20416;-72
2023/05/01 00:46:37;;;;;;;;;;;;;;;4.20;80.73;100553.47;10674961;27;19930;-72
2023/05/01 00:51:40;;;;;;;;;;;;;;;4.20;80.55;100560.78;10643589;27;20376;-72
2023/05/01 00:56:42;;;;;;;;;;;;;;;3.97;81.77;100558.94;10632263;27;20313;-72
2023/05/01 01:01:44;;;;;;;;;;;;;;;4.01;81.77;100559.31;10656076;27;19928;-72
2023/05/01 01:07:28;;;;;;;;;;;;;;;4.02;82.01;100550.91;10620176;27;19927;-73
2023/05/01 01:12:34;;;;;;;;;;;;;;;4.08;82.46;100547.22;10574355;27;19947;-72
2023/05/01 01:17:39;;;;;;;;;;;;;;;4.14;83.04;100556.28;10636242;27;19924;-72
2023/05/01 01:22:42;;;;;;;;;;;;;;;4.12;83.20;100542.97;10642576;27;20862;-71
2023/05/01 01:28:00;;;;;;;;;;;;;;;4.18;83.12;100536.59;10662979;27;20308;-72
2023/05/01 01:33:20;;;;;;;;;;;;;;;4.38;82.83;100538.88;10643290;27;19930;-72
2023/05/01 01:38:43;;;;;;;;;;;;;;;4.09;83.26;100535.31;10693068;27;19927;-73
2023/05/01 01:43:47;;;;;;;;;;;;;;;4.06;83.68;100527.63;10674786;27;19923;-73
2023/05/01 01:48:49;;;;;;;;;;;;;;;4.05;83.93;100530.59;10642618;27;19935;-72
2023/05/01 01:53:52;;;;;;;;;;;;;;;4.17;84.49;100529.50;10652920;27;19923;-71
2023/05/01 01:58:54;;;;;;;;;;;;;;;4.17;83.97;100524.06;10673737;27;19927;-72
2023/05/01 02:03:56;;;;;;;;;;;;;;;4.23;85.09;100533.13;10657270;27;19930;-72
2023/05/01 02:08:59;;;;;;;;;;;;;;;4.38;84.26;100535.31;10657932;27;19923;-72
2023/05/01 02:14:02;;;;;;;;;;;;;;;4.37;84.23;100539.09;10655031;27;19923;-72
2023/05/01 02:19:22;;;;;;;;;;;;;;;4.42;84.48;100531.03;10625587;27;20542;-72
2023/05/01 02:24:24;;;;;;;;;;;;;;;4.19;84.03;100534.69;10614566;27;19923;-72
2023/05/01 02:29:26;;;;;;;;;;;;;;;4.32;84.29;100537.09;10653236;27;19923;-72
2023/05/01 02:34:28;;;;;;;;;;;;;;;4.36;83.91;100540.19;10651743;27;20316;-72
2023/05/01 02:39:30;;;;;;;;;;;;;;;4.37;83.95;100537.22;10678468;27;19930;-72
2023/05/01 02:44:40;;;;;;;;;;;;;;;4.35;83.86;100536.63;10632281;27;19923;-72
2023/05/01 02:49:43;;;;;;;;;;;;;;;4.31;84.54;100540.06;10618487;27;19924;-72
2023/05/01 02:54:46;;;;;;;;;;;;;;;4.45;84.51;100536.81;10665641;27;19931;-71
2023/05/01 02:59:48;;;;;;;;;;;;;;;4.47;83.80;100542.00;10649436;27;19930;-73
2023/05/01 03:04:51;;;;;;;;;;;;;;;4.48;84.24;100547.19;10639242;27;19923;-71
2023/05/01 03:09:52;;;;;;;;;;;;;;;4.51;84.68;100548.59;10690565;27;19923;-71
2023/05/01 03:14:55;;;;;;;;;;;;;;;4.58;84.75;100543.03;10627067;27;19924;-71
2023/05/01 03:19:57;;;;;;;;;;;;;;;4.61;85.84;100548.78;10625401;27;19923;-71
2023/05/01 03:24:59;;;;;;;;;;;;;;;4.62;85.74;100555.03;10659508;27;19930;-71
2023/05/01 03:30:01;;;;;;;;;;;;;;;4.56;86.04;100553.31;10621250;27;19947;-72
2023/05/01 03:35:07;;;;;;;;;;;;;;;4.46;86.29;100553.94;10642687;27;20297;-72
2023/05/01 03:40:12;;;;;;;;;;;;;;;4.46;85.94;100556.66;10624049;27;20392;-72
2023/05/01 03:45:32;;;;;;;;;;;;;;;4.50;86.29;100553.19;10675701;27;19930;-72
2023/05/01 03:50:35;;;;;;;;;;;;;;;4.50;86.53;100553.19;10679002;27;19930;-72
2023/05/01 03:55:37;;;;;;;;;;;;;;;4.32;85.82;100564.25;10673161;27;19922;-72
2023/05/01 04:00:40;;;;;;;;;;;;;;;4.35;85.60;100558.38;10666623;27;20341;-72
2023/05/01 04:05:42;;;;;;;;;;;;;;;4.28;85.46;100562.28;10614855;27;19919;-72
2023/05/01 04:10:57;;;;;;;;;;;;;;;4.45;85.54;100563.97;10636446;27;20335;-72
2023/05/01 04:15:59;;;;;;;;;;;;;;;4.46;84.32;100568.34;10644119;27;19929;-72
2023/05/01 04:21:03;;;;;;;;;;;;;;;4.60;83.50;100559.91;10634665;27;19930;-71
2023/05/01 04:26:06;;;;;;;;;;;;;;;5.29;81.48;100563.25;10677666;27;19923;-71
2023/05/01 04:31:09;;;;;;;;;;;;;;;5.59;79.64;100566.47;10653608;27;20324;-72
2023/05/01 04:36:11;;;;;;;;;;;;;;;6.17;77.58;100573.25;10682958;27;19923;-72
2023/05/01 04:41:20;;;;;;;;;;;;;;;6.19;76.38;100573.81;10630241;28;20325;-72
2023/05/01 04:46:23;;;;;;;;;;;;;;;6.70;74.79;100571.66;10652185;27;19946;-72
2023/05/01 04:51:26;;;;;;;;;;;;;;;6.81;74.15;100575.34;10658595;27;20376;-72
2023/05/01 04:56:31;;;;;;;;;;;;;;;7.50;70.37;100567.19;10666406;27;20544;-72
2023/05/01 05:01:35;;;;;;;;;;;;;;;7.24;67.82;100568.88;10651495;27;19929;-72
2023/05/01 05:06:39;;;;;;;;;;;;;;;6.69;69.74;100586.38;10663009;27;19923;-72
2023/05/01 05:11:46;;;;;;;;;;;;;;;6.24;70.02;100589.41;10659527;27;19930;-72
2023/05/01 05:16:55;;;;;;;;;;;;;;;6.80;71.06;100590.88;10661669;27;19990;-72
2023/05/01 05:22:00;;;;;;;;;;;;;;;6.95;69.31;100591.03;10652392;27;20427;-72
2023/05/01 05:27:03;;;;;;;;;;;;;;;6.98;68.71;100588.84;10663301;27;20415;-72
2023/05/01 05:32:05;;;;;;;;;;;;;;;6.83;68.98;100606.72;10691249;27;19949;-72
2023/05/01 05:37:08;;;;;;;;;;;;;;;7.00;69.23;100605.78;10684384;27;20400;-72
2023/05/01 05:42:18;;;;;;;;;;;;;;;6.90;67.80;100609.22;10661070;27;19923;-72
2023/05/01 05:47:22;;;;;;;;;;;;;;;6.93;67.84;100609.53;10669730;27;19926;-73
2023/05/01 05:52:25;;;;;;;;;;;;;;;8.15;64.25;100595.94;10665405;27;19923;-73
2023/05/01 05:57:27;;;;;;;;;;;;;;;9.50;60.49;100595.72;10683545;27;19958;-71
2023/05/01 06:02:31;;;;;;;;;;;;;;;9.79;59.16;100595.16;10683041;27;19949;-71
2023/05/01 06:07:36;;;;;;;;;;;;;;;9.79;57.08;100600.63;10681592;27;19923;-72
2023/05/01 06:12:38;;;;;;;;;;;;;;;10.49;57.16;100596.88;10655846;27;19923;-73
2023/05/01 06:17:41;;;;;;;;;;;;;;;11.27;55.17;100619.97;10664395;27;19927;-72
2023/05/01 06:22:46;;;;;;;;;;;;;;;11.23;53.64;100611.50;10680121;27;19923;-72
2023/05/01 06:28:03;;;;;;;;;;;;;;;11.01;51.95;100613.88;10681975;27;19952;-72
2023/05/01 06:33:09;;;;;;;;;;;;;;;11.54;51.81;100616.75;10677981;27;20388;-72
2023/05/01 06:38:12;;;;;;;;;;;;;;;11.09;52.05;100622.31;10654946;27;19923;-72
2023/05/01 06:43:14;;;;;;;;;;;;;;;11.37;50.68;100625.41;10705801;27;19923;-72
2023/05/01 06:48:16;;;;;;;;;;;;;;;12.84;48.70;100618.34;10656987;27;19922;-72
2023/05/01 06:53:18;;;;;;;;;;;;;;;12.63;48.43;100627.97;10683679;27;19922;-72
2023/05/01 06:58:21;;;;;;;;;;;;;;;12.52;47.63;100626.50;10662194;27;19931;-72
2023/05/01 07:03:26;;;;;;;;;;;;;;;12.34;49.09;100626.16;10686704;27;19923;-72
2023/05/01 07:08:28;;;;;;;;;;;;;;;13.31;47.10;100626.78;10691656;27;20608;-71
2023/05/01 07:13:30;;;;;;;;;;;;;;;13.45;46.46;100633.97;10678438;27;19934;-72
2023/05/01 07:18:33;;;;;;;;;;;;;;;13.12;46.16;100630.34;10701126;27;20478;-72
2023/05/01 07:28:40;;;;;;;0.82;0.50;;;;;;;13.81;43.32;100639.72;10665465;27;20137;-72
2023/05/01 07:33:44;;;;;;;1.40;0.60;;;;;;;14.28;41.58;100628.66;10627679;27;20034;-72
2023/05/01 07:38:46;;;;;;;0.50;0.50;;;;;;;14.16;41.66;100631.91;10635579;27;20044;-73
2023/05/01 07:43:48;;;;;;;1.00;0.75;;;;;;;14.34;40.70;100624.66;10649136;27;20034;-72
2023/05/01 07:48:51;;;;;;;0.70;0.57;;;;;;;14.70;38.64;100628.34;10670570;27;20559;-72
2023/05/01 07:53:53;;;;;;;0.93;0.50;;;;;;;14.86;38.39;100628.00;10643913;27;20413;-72
2023/05/01 07:58:55;;;;;;;0.60;0.60;;;;;;;14.61;38.14;100630.22;10629332;27;20040;-71
2023/05/01 08:03:57;;;;;;;0.65;0.60;;;;;;;14.48;37.75;100629.09;10648220;27;20520;-72
2023/05/01 08:09:00;;;;;;;1.80;0.90;;;;;;;14.27;37.77;100636.13;10627364;27;20035;-72
2023/05/01 08:14:02;;;;;;;1.20;0.60;;;;;;;14.60;36.93;100638.81;10648858;27;20047;-72
2023/05/01 08:19:05;;;;;;;1.95;0.68;;;;;;;14.37;37.16;100635.09;10633542;27;20036;-72
2023/05/01 08:24:08;;;;;;;0.88;0.68;;;;;;;14.31;37.68;100639.91;10640057;27;20485;-72
2023/05/01 08:29:10;;;;;;;2.90;0.82;;;;;;;14.19;38.14;100643.16;10681372;27;20536;-72
2023/05/01 08:34:12;;;;;;;1.05;0.70;;;;;;;14.33;37.10;100643.16;10645503;27;20546;-73
2023/05/01 08:39:15;;;;;;;1.40;0.80;;;;;;;14.46;36.82;100644.31;10649778;27;20054;-73
2023/05/01 08:44:18;;;;;;;5.80;0.80;;;;;;;14.34;37.50;100643.97;10646435;27;20050;-72
2023/05/01 08:49:21;;;;;;;0.52;0.47;;;;;;;13.96;39.04;100635.06;10634971;27;20032;-73
2023/05/01 08:54:26;;;;;;;0.63;0.60;;;;;;;14.22;38.90;100646.41;10614404;27;20031;-72
2023/05/01 08:59:33;;;;;;;1.42;0.50;;;;;;;13.74;39.66;100647.56;10620111;27;20032;-72
2023/05/01 09:04:38;;;;;;;3.35;0.68;;;;;;;13.12;41.28;100660.63;10616261;27;20036;-74
2023/05/01 09:09:40;;;;;;;3.53;0.60;;;;;;;13.12;42.36;100657.88;10624956;27;20520;-74
2023/05/01 09:14:44;;;;;;;2.08;0.75;;;;;;;12.89;42.52;100662.34;10638881;27;20039;-72
2023/05/01 09:19:47;;;;;;;2.55;0.93;;;;;;;12.74;43.31;100664.47;10580350;27;20402;-72
2023/05/01 09:24:49;;;;;;;1.02;0.60;;;;;;;11.54;45.26;100669.78;10579569;28;20039;-72
2023/05/01 09:29:51;;;;;;;4.22;0.73;;;;;;;10.64;48.07;100670.06;10588846;28;20097;-71
2023/05/01 09:35:07;;;;;;;2.97;0.70;;;;;;;10.40;48.11;100667.09;10607967;28;20036;-71
2023/05/01 09:40:12;;;;;;;1.10;0.80;;;;;;;10.29;48.15;100670.19;10584572;28;20055;-72
2023/05/01 09:45:14;;;;;;;0.70;0.70;;;;;;;10.04;48.81;100674.56;10598911;28;20050;-70
2023/05/01 09:50:34;;;;;;;3.80;0.90;;;;;;;9.74;47.84;100669.97;10595826;28;20035;-71
2023/05/01 09:55:36;;;;;;;0.52;0.52;;;;;;;9.49;47.68;100670.78;10610758;28;20041;-71
2023/05/01 10:00:57;;;;;;;0.40;0.40;;;;;;;9.56;47.60;100668.59;10570376;28;20047;-74
2023/05/01 10:06:01;;;;;;;2.15;0.50;;;;;;;9.43;46.66;100654.63;10603585;28;20050;-75
2023/05/01 10:11:04;;;;;;;1.92;0.43;;;;;;;9.47;46.20;100655.72;10593076;28;20044;-76
2023/05/01 10:16:22;;;;;;;1.92;0.57;;;;;;;9.53;46.08;100658.16;10587259;28;20036;-74
2023/05/01 10:21:26;;;;;;;1.75;0.40;;;;;;;9.34;45.74;100666.09;10601771;27;20070;-74
2023/05/01 10:26:29;;;;;;;2.58;0.60;;;;;;;9.31;45.25;100657.63;10581660;28;20051;-75
2023/05/01 10:31:31;;;;;;;1.10;0.68;;;;;;;9.37;46.95;100662.00;10585872;28;20043;-74
2023/05/01 10:36:46;;;;;;;0.82;0.22;;;;;;;9.49;46.11;100659.00;10602150;28;20051;-74
2023/05/01 10:42:00;;;;;;;1.85;0.40;;;;;;;9.40;46.41;100657.91;10575431;28;20051;-74
2023/05/01 10:47:29;;;;;;;0.57;0.55;;;;;;;9.24;45.41;100677.06;10596978;27;20421;-74
2023/05/01 10:53:09;;;;;;;0.38;0.38;;;;;;;9.14;45.36;100671.56;10595741;28;20036;-74
2023/05/01 10:58:33;;;;;;;1.58;0.40;;;;;;;9.37;46.40;100675.69;10584145;27;20043;-74
2023/05/01 11:03:36;;;;;;;0.50;0.50;;;;;;;9.39;46.89;100669.97;10586757;28;20075;-74
2023/05/01 11:08:41;;;;;;;1.20;0.60;;;;;;;9.10;47.63;100672.38;10583670;28;20382;-74
2023/05/01 11:14:03;;;;;;;0.85;0.80;;;;;;;8.94;49.15;100686.00;10580798;28;20050;-74
2023/05/01 11:19:06;;;;;;;1.05;0.60;;;;;;;8.86;49.76;100689.28;10587089;28;20043;-73
2023/05/01 11:24:10;;;;;;;0.55;0.50;;;;;;;8.80;49.13;100690.34;10573538;28;20141;-74
2023/05/01 11:29:12;;;;;;;2.20;0.70;;;;;;;8.63;48.90;100690.53;10586110;28;20032;-74
2023/05/01 11:34:15;;;;;;;1.17;0.45;;;;;;;8.57;49.98;100694.34;10586709;28;20039;-72
2023/05/01 11:39:18;;;;;;;0.50;0.50;;;;;;;8.43;49.02;100704.13;10589397;28;20033;-73
2023/05/01 11:44:21;;;;;;;1.15;0.50;;;;;;;8.47;49.68;100688.81;10589938;28;20036;-73
2023/05/01 11:49:30;;;;;;;0.68;0.68;;;;;;;8.47;50.00;100697.03;10578495;28;20542;-76
2023/05/01 11:54:48;;;;;;;0.22;0.22;;;;;;;8.42;49.80;100695.09;10584224;28;20040;-74
2023/05/01 11:59:54;;;;;;;2.35;0.43;;;;;;;8.40;50.77;100696.44;10572573;28;20074;-73
2023/05/01 12:05:13;;;;;;;0.55;0.40;;;;;;;8.41;50.81;100692.63;10619337;28;20047;-73
2023/05/01 12:10:16;;;;;;;0.90;0.70;;;;;;;8.43;50.62;100701.38;10611032;27;20050;-74
2023/05/01 12:15:19;;;;;;;1.33;1.20;;;;;;;8.57;50.78;100688.06;10617715;27;20483;-73
2023/05/01 12:20:41;;;;;;;3.15;1.15;;;;;;;8.67;49.69;100691.66;10643789;27;20042;-73
2023/05/01 12:25:44;;;;;;;2.95;1.17;;;;;;;8.73;49.60;100687.84;10640454;27;20042;-75
2023/05/01 12:30:50;;;;;;;1.63;0.68;;;;;;;8.77;48.17;100702.63;10616984;27;20047;-73
2023/05/01 12:35:52;;;;;;;0.73;0.70;;;;;;;8.72;48.62;100694.44;10620914;27;20523;-73
2023/05/01 12:40:56;;;;;;;2.08;0.65;;;;;;;8.79;48.48;100702.38;10615260;27;20055;-72
2023/05/01 12:45:59;;;;;;;2.00;0.80;;;;;;;8.74;47.26;100696.88;10613012;27;20039;-73
2023/05/01 12:51:01;;;;;;;1.25;0.68;;;;;;;8.70;47.19;100699.34;10617479;27;20042;-73
2023/05/01 12:56:03;;;;;;;1.23;0.52;;;;;;;8.65;46.91;100701.22;10614543;27;20043;-73
2023/05/01 13:01:05;;;;;;;0.50;0.40;;;;;;;8.58;46.52;100709.66;10629236;27;20038;-72
2023/05/01 13:06:08;;;;;;;0.85;0.73;;;;;;;8.59;46.48;100705.84;10621387;27;20047;-72
2023/05/01 13:11:15;;;;;;;3.92;0.95;;;;;;;8.67;46.67;100702.59;10636856;27;20416;-73
2023/05/01 13:16:17;;;;;;;1.95;0.90;;;;;;;8.78;46.82;100700.72;10632165;27;20428;-73
2023/05/01 13:21:23;;;;;;;1.27;0.70;;;;;;;8.80;45.65;100714.13;10638199;27;20088;-73
2023/05/01 13:26:31;;;;;;;1.63;0.77;;;;;;;8.62;45.12;100702.56;10600949;27;20054;-72
2023/05/01 13:31:33;;;;;;;1.15;0.80;;;;;;;8.58;45.03;100726.09;10624834;27;20032;-72
2023/05/01 13:36:36;;;;;;;1.80;0.90;;;;;;;8.79;45.70;100710.56;10638324;27;20412;-73
2023/05/01 13:41:41;;;;;;;1.83;0.90;;;;;;;8.94;44.42;100718.03;10617049;27;20448;-72
2023/05/01 13:46:44;;;;;;;6.88;1.00;;;;;;;8.82;44.37;100725.63;10633238;27;20055;-73
2023/05/01 13:51:47;;;;;;;0.50;0.50;;;;;;;8.74;44.45;100727.81;10621887;27;20039;-74
2023/05/01 13:56:49;;;;;;;1.75;0.80;;;;;;;8.71;43.75;100722.06;10619198;27;20042;-74
2023/05/01 14:01:52;;;;;;;0.90;0.75;;;;;;;8.61;43.68;100720.06;10604662;27;20043;-74
2023/05/01 14:06:54;;;;;;;2.72;0.95;;;;;;;8.61;43.87;100731.03;10595386;27;20035;-75
2023/05/01 14:11:57;;;;;;;0.85;0.60;;;;;;;8.59;43.65;100727.72;10637799;27;20038;-73
2023/05/01 14:16:59;;;;;;;1.30;0.70;;;;;;;8.76;43.38;100738.47;10622833;27;20052;-76
2023/05/01 14:22:06;;;;;;;1.45;0.68;;;;;;;8.62;43.24;100727.19;10628552;27;20042;-73
2023/05/01 14:27:12;;;;;;;1.55;0.60;;;;;;;8.56;43.29;100733.72;10629487;27;20054;-73
2023/05/01 14:32:15;;;;;;;1.83;0.60;;;;;;;8.58;43.79;100737.03;10622986;27;20044;-73
2023/05/01 14:37:17;;;;;;;1.23;0.80;;;;;;;8.67;43.78;100745.53;10629205;27;20526;-74
2023/05/01 14:42:19;;;;;;;1.30;0.77;;;;;;;8.61;43.73;100755.63;10626335;27;20038;-73
2023/05/01 14:47:22;;;;;;;2.03;0.90;;;;;;;8.66;44.01;100752.09;10619657;27;20643;-74
2023/05/01 14:52:24;;;;;;;1.00;0.75;;;;;;;8.62;43.92;100760.00;10634811;27;20501;-73
2023/05/01 14:57:26;;;;;;;1.50;0.80;;;;;;;8.58;44.00;100752.63;10613983;27;20046;-73
2023/05/01 15:02:29;;;;;;;0.70;0.68;;;;;;;8.43;44.21;100761.53;10631879;27;20051;-73
2023/05/01 15:07:32;;;;;;;7.50;1.33;;;;;;;8.46;44.07;100761.84;10622465;27;20042;-73
2023/05/01 15:12:34;;;;;;;1.65;1.00;;;;;;;8.44;44.11;100752.25;10614271;27;20425;-72
2023/05/01 15:17:36;;;;;;;3.67;1.60;;;;;;;8.57;44.64;100767.38;10611723;27;20488;-73
2023/05/01 15:22:39;;;;;;;1.70;0.88;;;;;;;8.45;44.81;100765.66;10651938;27;20039;-72
2023/05/01 15:27:41;;;;;;;1.20;1.00;;;;;;;8.43;45.11;100772.47;10626795;27;20046;-74
2023/05/01 15:32:43;;;;;;;1.80;1.05;;;;;;;8.38;45.24;100772.47;10650895;28;20539;-72
2023/05/01 15:37:46;;;;;;;2.58;0.85;;;;;;;8.32;44.88;100771.53;10646792;27;20035;-72
2023/05/01 15:42:49;;;;;;;1.75;1.20;;;;;;;8.24;45.61;100783.00;10633715;28;20050;-73
2023/05/01 15:47:51;;;;;;;4.43;1.17;;;;;;;8.19;46.28;100785.69;10656751;27;20035;-73
2023/05/01 15:52:53;;;;;;;1.30;1.20;;;;;;;8.21;45.94;100785.44;10631866;27;20031;-73
2023/05/01 15:57:56;;;;;;;1.92;0.88;;;;;;;8.18;46.33;100785.97;10634247;27;20054;-73
2023/05/01 16:03:23;;;;;;;2.38;1.20;;;;;;;8.28;46.56;100775.91;10616117;27;20432;-72
2023/05/01 16:08:26;;;;;;;3.47;1.30;;;;;;;8.35;45.53;100787.47;10653496;27;20050;-72
2023/05/01 16:13:28;;;;;;;2.10;1.30;;;;;;;8.25;45.15;100795.56;10632609;27;20058;-72
2023/05/01 16:18:31;;;;;;;1.60;0.85;;;;;;;8.11;45.58;100788.88;10609933;27;20050;-71
2023/05/01 16:23:33;;;;;;;1.80;0.70;;;;;;;8.14;45.34;100791.09;10632302;27;20046;-77
2023/05/01 16:28:36;;;;;;;0.93;0.70;;;;;;;8.09;45.89;100794.63;10629300;27;20050;-73
2023/05/01 16:33:40;;;;;;;1.65;0.90;;;;;;;8.06;45.36;100800.63;10610516;27;20043;-75
2023/05/01 16:38:43;;;;;;;2.70;0.80;;;;;;;7.86;45.51;100798.53;10631214;27;20050;-73
2023/05/01 16:43:46;;;;;;;1.10;0.85;;;;;;;7.88;45.85;100794.72;10640724;27;20499;-73
2023/05/01 16:48:49;;;;;;;3.25;1.25;;;;;;;7.74;46.01;100803.31;10643998;27;20483;-73
2023/05/01 16:53:51;;;;;;;3.35;0.93;;;;;;;7.69;46.70;100805.19;10639291;27;20503;-74
2023/05/01 16:58:53;;;;;;;2.55;0.90;;;;;;;7.71;47.40;100797.56;10652034;27;20039;-73
2023/05/01 17:03:55;;;;;;;2.40;0.70;;;;;;;7.80;47.39;100804.19;10623380;27;20050;-73
2023/05/01 17:08:58;;;;;;;1.33;0.70;;;;;;;7.79;48.31;100797.06;10630305;27;20039;-73
2023/05/01 17:14:01;;;;;;;2.17;0.75;;;;;;;7.87;48.03;100796.63;10632966;27;20043;-73
2023/05/01 17:19:07;;;;;;;2.00;0.98;;;;;;;7.74;48.22;100794.31;10629729;27;20050;-73
2023/05/01 17:24:11;;;;;;;0.80;0.60;;;;;;;7.79;48.72;100802.53;10619171;27;20032;-73
2023/05/01 17:29:14;;;;;;;2.45;0.68;;;;;;;7.80;48.92;100802.28;10649672;27;20544;-73
2023/05/01 17:34:16;;;;;;;1.15;0.77;;;;;;;7.78;48.82;100807.19;10643945;27;20066;-71
2023/05/01 17:39:20;;;;;;;1.83;1.50;;;;;;;7.80;47.93;100798.72;10633111;27;20500;-72
2023/05/01 17:44:22;;;;;;;3.70;1.25;;;;;;;7.79;48.77;100806.09;10650586;27;20054;-73
2023/05/01 17:49:25;;;;;;;2.47;1.25;;;;;;;7.99;48.72;100807.41;10643999;27;20440;-73
2023/05/01 17:54:27;;;;;;;2.78;1.60;;;;;;;8.08;48.59;100809.38;10633628;27;20050;-72
2023/05/01 17:59:29;;;;;;;2.00;1.50;;;;;;;8.19;47.81;100814.94;10650175;27;20062;-73
2023/05/01 18:04:32;;;;;;;5.55;1.63;;;;;;;8.27;47.66;100823.47;10651142;27;20039;-74
2023/05/01 18:09:34;;;;;;;3.00;1.48;;;;;;;8.18;48.21;100822.31;10627190;27;20043;-74
2023/05/01 18:14:36;;;;;;;2.67;1.58;;;;;;;8.03;47.96;100825.72;10646110;27;20035;-72
2023/05/01 18:19:38;;;;;;;3.25;1.83;;;;;;;8.03;48.03;100839.41;10645223;27;20040;-73
2023/05/01 18:24:41;;;;;;;3.58;1.38;;;;;;;8.09;48.02;100835.63;10642231;27;20048;-72
2023/05/01 18:29:45;;;;;;;3.45;1.02;;;;;;;8.01;47.50;100832.53;10629734;27;20114;-73
2023/05/01 18:34:50;;;;;;;3.60;1.35;;;;;;;8.01;47.97;100835.28;10582484;27;20574;-73
2023/05/01 18:39:52;;;;;;;3.13;1.40;;;;;;;8.16;47.38;100830.78;10639259;27;20047;-74
2023/05/01 18:44:55;;;;;;;1.83;1.25;;;;;;;8.24;46.94;100831.38;10628050;27;20043;-73
2023/05/01 18:49:57;;;;;;;2.63;1.33;;;;;;;8.15;46.65;100823.63;10646043;27;20051;-75
2023/05/01 18:55:00;;;;;;;2.03;1.17;;;;;;;8.19;45.76;100829.44;10640060;27;20126;-72
2023/05/01 19:00:02;;;;;;;4.10;1.48;;;;;;;8.13;46.59;100827.72;10604699;27;20052;-72
2023/05/01 19:05:08;;;;;;;4.20;1.88;;;;;;;8.12;46.07;100824.16;10646372;27;20063;-75
2023/05/01 19:10:10;;;;;;;6.70;1.83;;;;;;;8.02;46.42;100824.09;10636695;27;20043;-73
2023/05/01 19:15:13;;;;;;;5.18;1.48;;;;;;;7.75;45.94;100826.81;10605548;27;20066;-73
2023/05/01 19:20:15;;;;;;;3.92;1.30;;;;;;;7.55;47.24;100824.72;10597320;27;20047;-73
2023/05/01 19:25:17;;;;;;;4.47;1.25;;;;;;;7.63;46.30;100819.84;10649652;27;20051;-76
2023/05/01 19:30:20;;;;;;;4.22;1.50;;;;;;;7.78;46.10;100826.31;10634405;28;20042;-77
2023/05/01 19:35:22;;;;;;;1.25;1.00;;;;;;;7.97;44.83;100823.19;10639547;28;20046;-74
2023/05/01 19:40:24;;;;;;;4.15;1.00;;;;;;;7.76;45.25;100812.09;10648052;28;20054;-73
2023/05/01 19:45:27;;;;;;;1.17;1.00;;;;;;;7.77;45.10;100818.38;10625353;28;20031;-72
2023/05/01 19:50:29;;;;;;;1.15;0.70;;;;;;;7.75;44.86;100831.47;10648825;28;20070;-74
2023/05/01 19:55:32;;;;;;;0.93;0.75;;;;;;;7.88;44.19;100820.13;10650655;28;20493;-72
2023/05/01 20:00:34;;;;;;;0.63;0.63;;;;;;;7.91;44.52;100819.59;10611029;28;20035;-76
2023/05/01 20:05:36;;;;;;;1.17;1.00;;;;;;;7.93;44.84;100817.44;10627629;28;20027;-75
2023/05/01 20:10:39;;;;;;;1.67;0.90;;;;;;;7.94;44.12;100827.28;10648183;28;20035;-76
2023/05/01 20:15:42;;;;;;;1.67;0.93;;;;;;;7.85;43.89;100821.47;10614080;28;20526;-75
2023/05/01 20:20:44;;;;;;;4.07;1.17;;;;;;;7.88;44.84;100819.31;10646106;28;20042;-75
2023/05/01 20:25:47;;;;;;;1.48;0.90;;;;;;;7.87;44.28;100823.94;10630924;28;20035;-72
2023/05/01 20:30:49;;;;;;;2.35;1.00;;;;;;;7.89;43.18;100832.69;10641698;28;20046;-74
2023/05/01 20:35:51;;;;;;;2.88;1.65;;;;;;;8.00;43.66;100830.91;10635960;27;20046;-74
2023/05/01 20:40:54;;;;;;;3.63;1.65;;;;;;;8.16;43.06;100827.22;10618618;27;20035;-74
2023/05/01 20:45:56;;;;;;;1.80;1.30;;;;;;;8.08;43.38;100835.88;10629507;27;20046;-74
2023/05/01 20:50:58;;;;;;;2.50;1.17;;;;;;;7.97;44.31;100824.03;10633975;27;20535;-78
2023/05/01 20:56:01;;;;;;;2.88;1.55;;;;;;;7.92;45.21;100825.91;10630955;27;20605;-77
2023/05/01 21:01:04;;;;;;;1.40;1.08;;;;;;;7.93;45.39;100825.63;10653936;27;20066;-77
2023/05/01 21:06:06;;;;;;;3.42;1.15;;;;;;;8.14;46.21;100823.91;10618681;27;20088;-78
2023/05/01 21:11:08;;;;;;;1.42;1.13;;;;;;;8.28;46.02;100816.91;10616099;27;20039;-74
2023/05/01 21:16:15;;;;;;;2.05;0.98;;;;;;;8.40;45.82;100824.97;10647157;27;20157;-73
2023/05/01 21:21:18;;;;;;;3.50;1.40;;;;;;;8.33;45.98;100822.44;10633843;27;20035;-74
2023/05/01 21:26:20;;;;;;;1.45;1.00;;;;;;;8.16;46.43;100832.69;10638708;27;20898;-72
2023/05/01 21:31:29;;;;;;;1.70;1.13;;;;;;;8.15;45.76;100833.75;10591637;27;20538;-74
2023/05/01 21:36:42;;;;;;;2.85;1.20;;;;;;;8.19;45.95;100825.88;10599318;27;20036;-80
2023/05/01 21:41:47;;;;;;;2.03;1.30;;;;;;;7.92;46.30;100826.72;10579275;28;20054;-77
2023/05/01 21:46:54;;;;;;;3.10;1.17;;;;;;;7.90;46.43;100828.88;10574478;28;20032;-78
2023/05/01 21:51:58;;;;;;;;;;;;;;;7.83;46.65;100822.81;10587012;28;20036;-76
2023/05/01 21:57:04;;;;;;;0.80;0.80;;;;;;;7.91;46.65;100819.59;10608746;28;19919;-74
2023/05/01 22:02:07;;;;;;;2.10;1.30;;;;;;;7.88;47.74;100831.06;10610893;28;20039;-73
2023/05/01 22:07:10;;;;;;;2.33;1.23;;;;;;;7.92;47.37;100829.44;10571950;28;20490;-74
2023/05/01 22:12:12;;;;;;;1.95;1.40;;;;;;;7.99;46.97;100830.06;10612633;27;20501;-80
2023/05/01 22:17:15;;;;;;;2.47;1.50;;;;;;;7.93;47.53;100831.09;10608510;28;20047;-78
2023/05/01 22:22:18;;;;;;;3.65;1.13;;;;;;;7.95;47.57;100820.72;10592460;28;20524;-76
2023/05/01 22:27:21;;;;;;;3.55;1.33;;;;;;;7.85;48.03;100815.19;10589788;28;20368;-76
2023/05/01 22:32:25;;;;;;;2.65;1.40;;;;;;;7.90;49.05;100809.75;10586982;28;20533;-75
2023/05/01 22:37:27;;;;;;;2.08;0.90;;;;;;;7.92;49.40;100806.75;10594135;27;20042;-75
2023/05/01 22:42:32;;;;;;;5.15;1.17;;;;;;;7.88;49.41;100808.38;10613291;27;20028;-77
2023/05/01 22:47:34;;;;;;;2.55;0.88;;;;;;;7.95;49.47;100803.50;10605230;28;20039;-77
2023/05/01 22:52:37;;;;;;;1.63;0.93;;;;;;;7.94;49.95;100808.16;10607988;27;20031;-77
2023/05/01 22:57:44;;;;;;;1.02;0.80;;;;;;;7.91;50.23;100816.03;10609422;28;20039;-77
2023/05/01 23:02:46;;;;;;;2.95;0.80;;;;;;;7.94;50.38;100802.69;10611083;28;20047;-76
2023/05/01 23:07:49;;;;;;;0.65;0.65;;;;;;;7.90;50.49;100795.28;10601316;28;20039;-77
2023/05/01 23:12:51;;;;;;;0.73;0.73;;;;;;;7.93;50.72;100806.50;10610594;28;20047;-75
2023/05/01 23:17:54;;;;;;;0.85;0.60;;;;;;;7.88;51.06;100794.72;10606898;28;20145;-76
2023/05/01 23:22:57;;;;;;;0.43;0.40;;;;;;;7.93;51.00;100781.91;10602001;28;20074;-76
2023/05/01 23:27:59;;;;;;;0.57;0.43;;;;;;;8.02;50.75;100780.38;10567679;28;20043;-76
2023/05/01 23:33:01;;;;;;;1.10;0.75;;;;;;;8.07;50.66;100788.59;10551171;28;20051;-77
2023/05/01 23:38:04;;;;;;;0.65;0.65;;;;;;;8.04;50.39;100786.38;10608506;28;20055;-74
2023/05/01 23:43:06;;;;;;;2.00;0.82;;;;;;;8.01;50.88;100784.19;10611056;28;20041;-78
2023/05/01 23:48:09;;;;;;;0.88;0.47;;;;;;;8.14;50.76;100780.16;10584140;28;20052;-78
2023/05/01 23:53:11;;;;;;;0.85;0.70;;;;;;;8.07;50.13;100777.66;10599968;28;20043;-75
2023/05/01 23:58:13;;;;;;;2.30;0.60;;;;;;;8.02;51.02;100763.97;10592802;28;20040;-75
